Time;durP1;ratioP1;P1;durP2;ratioP2;P2;SDS_P1;SDS_P2;PMS_P1;PMS_P2;Temp;Humidity;BMP_temperature;BMP_pressure;BME280_temperature;BME280_humidity;BME280_pressure;Samples;Min_cycle;Max_cycle;Signal;HPM_P1;HPM_P2
2021/06/16 00:02:00;;;;;;;3.73;3.33;;;;;;;18.60;75.30;98147.28;5069244;28;20233;-61
2021/06/16 00:04:26;;;;;;;3.73;3.00;;;;;;;18.58;75.62;98153.78;5067010;28;20644;-61
2021/06/16 00:06:52;;;;;;;3.10;2.80;;;;;;;18.51;76.47;98150.06;5068642;28;20235;-61
2021/06/16 00:09:19;;;;;;;3.57;3.27;;;;;;;18.45;77.71;98151.53;5068536;28;20640;-60
2021/06/16 00:11:45;;;;;;;3.43;3.10;;;;;;;18.42;78.05;98153.69;5069035;28;20275;-62
2021/06/16 00:14:12;;;;;;;3.60;3.30;;;;;;;18.38;78.44;98149.63;5068504;28;20286;-61
2021/06/16 00:16:39;;;;;;;3.50;3.20;;;;;;;18.30;78.91;98155.69;5069045;28;20211;-61
2021/06/16 00:19:07;;;;;;;3.70;3.27;;;;;;;18.25;79.98;98152.66;5068560;28;20313;-61
2021/06/16 00:21:33;;;;;;;4.40;3.17;;;;;;;18.20;79.59;98154.94;5068906;28;20238;-61
2021/06/16 00:24:00;;;;;;;3.67;3.30;;;;;;;18.17;79.33;98154.41;5068018;28;20649;-61
2021/06/16 00:26:27;;;;;;;5.40;3.67;;;;;;;18.15;79.94;98145.69;5068713;28;20578;-61
2021/06/16 00:28:53;;;;;;;3.60;3.20;;;;;;;18.11;80.24;98145.16;5068503;28;20245;-61
2021/06/16 00:31:20;;;;;;;3.57;3.27;;;;;;;18.09;80.56;98147.16;5066913;28;20215;-61
2021/06/16 00:33:47;;;;;;;3.60;3.30;;;;;;;18.07;80.54;98149.13;5068577;28;20219;-60
2021/06/16 00:36:15;;;;;;;4.10;3.53;;;;;;;18.05;79.48;98144.94;5068589;28;20207;-61
2021/06/16 00:38:42;;;;;;;4.57;3.50;;;;;;;18.03;78.55;98142.41;5068531;28;20204;-61
2021/06/16 00:41:09;;;;;;;3.90;3.00;;;;;;;17.98;78.65;98147.34;5068557;28;20218;-61
2021/06/16 00:43:35;;;;;;;4.07;3.53;;;;;;;17.94;79.04;98142.47;5067826;28;20209;-61
2021/06/16 00:46:01;;;;;;;3.47;2.97;;;;;;;17.88;79.58;98148.44;5068272;28;20228;-61
2021/06/16 00:48:28;;;;;;;4.27;3.43;;;;;;;17.80;79.75;98151.84;5068420;28;20558;-61
2021/06/16 00:50:54;;;;;;;3.97;3.53;;;;;;;17.79;79.05;98150.16;5068416;28;20207;-61
2021/06/16 00:53:22;;;;;;;6.33;3.63;;;;;;;17.77;79.35;98157.50;5067933;28;20630;-60
2021/06/16 00:55:49;;;;;;;3.87;3.30;;;;;;;17.74;78.52;98152.44;5068177;28;20215;-61
2021/06/16 00:58:15;;;;;;;3.57;3.27;;;;;;;17.74;78.58;98140.94;5066738;28;20505;-61
2021/06/16 01:00:44;;;;;;;4.10;3.47;;;;;;;17.73;79.02;98150.75;5068189;28;20207;-61
2021/06/16 01:03:15;;;;;;;4.27;3.40;;;;;;;17.63;80.36;98147.28;5068007;28;20578;-61
2021/06/16 01:05:46;;;;;;;4.10;3.70;;;;;;;17.52;81.31;98155.53;5068002;28;20295;-61
2021/06/16 01:08:18;;;;;;;5.33;3.50;;;;;;;17.41;82.63;98155.72;5067689;28;20287;-61
2021/06/16 01:10:49;;;;;;;3.93;3.53;;;;;;;17.39;83.40;98155.03;5068212;28;20219;-60
2021/06/16 01:13:22;;;;;;;4.50;3.60;;;;;;;17.40;83.66;98151.38;5068144;28;20525;-61
2021/06/16 01:15:57;;;;;;;3.97;3.60;;;;;;;17.36;84.50;98151.75;5068410;28;20250;-61
2021/06/16 01:18:25;;;;;;;4.40;3.63;;;;;;;17.35;85.08;98144.75;5068340;28;20225;-62
2021/06/16 01:20:55;;;;;;;4.33;3.70;;;;;;;17.35;85.59;98145.59;5067961;28;20309;-61
2021/06/16 01:23:44;;;;;;;3.60;3.30;;;;;;;17.34;86.08;98143.06;5066287;28;20215;-61
2021/06/16 01:26:28;;;;;;;4.87;3.67;;;;;;;17.33;86.39;98147.59;5067969;28;20579;-62
2021/06/16 01:29:01;;;;;;;3.83;3.50;;;;;;;17.24;88.00;98144.97;5066444;28;20234;-62
2021/06/16 01:31:30;;;;;;;4.80;4.00;;;;;;;17.22;88.73;98145.09;5067763;28;20212;-60
2021/06/16 01:33:57;;;;;;;3.67;3.37;;;;;;;17.21;89.26;98143.41;5067881;28;20218;-61
2021/06/16 01:36:25;;;;;;;4.37;3.30;;;;;;;17.16;90.29;98145.69;5067749;28;20212;-60
2021/06/16 01:38:53;;;;;;;4.10;3.80;;;;;;;17.15;90.72;98146.66;5067496;28;20222;-60
2021/06/16 01:41:20;;;;;;;3.80;3.40;;;;;;;17.13;91.49;98140.63;5067989;28;20211;-60
2021/06/16 01:43:50;;;;;;;4.43;4.03;;;;;;;17.13;91.83;98148.63;5067712;28;20215;-61
2021/06/16 01:46:18;;;;;;;4.03;3.63;;;;;;;17.12;92.31;98144.28;5067974;28;20215;-61
2021/06/16 01:48:46;;;;;;;7.30;4.50;;;;;;;17.13;92.78;98140.63;5065760;28;20250;-61
2021/06/16 01:51:13;;;;;;;4.23;3.70;;;;;;;17.14;93.22;98144.97;5068171;28;20564;-61
2021/06/16 01:53:41;;;;;;;4.17;3.80;;;;;;;17.11;93.57;98150.63;5067850;28;20204;-60
2021/06/16 01:56:09;;;;;;;4.37;3.70;;;;;;;17.08;94.23;98142.06;5069912;28;20298;-60
2021/06/16 01:58:36;;;;;;;4.47;3.60;;;;;;;17.07;94.21;98151.06;5071102;28;20211;-60
2021/06/16 02:01:06;;;;;;;4.17;3.70;;;;;;;17.05;94.27;98153.88;5071578;28;20215;-60
2021/06/16 02:03:32;;;;;;;4.43;4.00;;;;;;;17.03;94.63;98150.50;5071087;28;20207;-60
2021/06/16 02:06:00;;;;;;;4.13;3.73;;;;;;;17.01;95.04;98154.31;5070809;28;20223;-60
2021/06/16 02:08:30;;;;;;;4.37;3.97;;;;;;;16.92;95.92;98137.31;5070859;28;20250;-60
2021/06/16 02:11:00;;;;;;;4.00;3.60;;;;;;;16.91;96.43;98143.66;5071162;28;20284;-60
2021/06/16 02:13:36;;;;;;;4.17;3.77;;;;;;;16.91;96.43;98130.31;5070952;28;20234;-60
2021/06/16 02:16:07;;;;;;;5.37;4.17;;;;;;;16.86;96.90;98140.56;5068767;28;20230;-60
2021/06/16 02:18:41;;;;;;;5.93;3.60;;;;;;;16.83;97.09;98137.34;5070733;28;20310;-60
2021/06/16 02:21:08;;;;;;;4.07;3.77;;;;;;;16.79;97.31;98133.28;5070677;28;20562;-59
2021/06/16 02:23:35;;;;;;;5.00;4.40;;;;;;;16.76;97.83;98131.75;5070572;28;20323;-60
2021/06/16 02:26:02;;;;;;;4.50;3.60;;;;;;;16.71;98.29;98133.16;5070987;28;20220;-60
2021/06/16 02:28:29;;;;;;;4.73;4.23;;;;;;;16.62;99.51;98118.84;5070468;28;20227;-61
2021/06/16 02:30:56;;;;;;;4.37;3.97;;;;;;;16.58;99.72;98122.78;5070840;28;20321;-61
2021/06/16 02:33:24;;;;;;;4.27;3.87;;;;;;;16.54;99.64;98116.06;5070748;28;20608;-61
2021/06/16 02:35:51;;;;;;;5.30;3.80;;;;;;;16.48;100.00;98113.13;5070658;28;20227;-61
2021/06/16 02:38:21;;;;;;;4.43;4.03;;;;;;;16.47;100.00;98114.13;5070172;28;20695;-61
2021/06/16 02:40:49;;;;;;;4.80;3.60;;;;;;;16.44;100.00;98109.91;5068663;28;20212;-61
2021/06/16 02:43:17;;;;;;;4.70;3.90;;;;;;;16.43;100.00;98110.88;5070276;28;20246;-60
2021/06/16 02:45:44;;;;;;;5.27;4.17;;;;;;;16.43;100.00;98110.03;5070109;28;20662;-60
2021/06/16 02:48:13;;;;;;;4.30;3.83;;;;;;;16.39;100.00;98112.16;5070057;28;20235;-60
2021/06/16 02:50:44;;;;;;;4.53;4.03;;;;;;;16.35;100.00;98115.22;5069742;28;20211;-60
2021/06/16 02:53:15;;;;;;;5.20;4.30;;;;;;;16.27;100.00;98113.25;5070033;28;20345;-60
2021/06/16 02:55:42;;;;;;;4.57;4.17;;;;;;;16.22;100.00;98112.81;5070226;28;20579;-59
2021/06/16 02:58:10;;;;;;;4.30;3.90;;;;;;;16.17;100.00;98112.44;5070287;28;20204;-60
2021/06/16 03:00:37;;;;;;;4.60;4.20;;;;;;;16.13;100.00;98112.84;5070229;28;20211;-60
2021/06/16 03:03:06;;;;;;;5.43;4.33;;;;;;;16.11;100.00;98112.13;5069740;28;20290;-60
2021/06/16 03:05:33;;;;;;;4.80;4.27;;;;;;;16.07;100.00;98109.91;5069193;28;20207;-59
2021/06/16 03:08:02;;;;;;;5.37;4.67;;;;;;;16.02;100.00;98101.47;5068201;28;20243;-60
2021/06/16 03:10:31;;;;;;;4.67;4.27;;;;;;;16.06;100.00;98108.22;5069659;28;20208;-60
2021/06/16 03:12:59;;;;;;;6.00;5.03;;;;;;;16.06;100.00;98110.88;5069695;28;20207;-60
2021/06/16 03:15:27;;;;;;;4.40;4.00;;;;;;;16.08;100.00;98106.25;5069743;28;20302;-60
2021/06/16 03:17:57;;;;;;;4.53;4.07;;;;;;;16.08;100.00;98110.59;5069100;28;20211;-60
2021/06/16 03:20:26;;;;;;;5.10;4.60;;;;;;;16.10;100.00;98110.47;5069871;28;20211;-59
2021/06/16 03:22:55;;;;;;;7.57;4.37;;;;;;;16.08;100.00;98107.94;5069667;28;20215;-59
2021/06/16 03:25:24;;;;;;;4.80;4.40;;;;;;;16.07;100.00;98109.91;5069480;28;20214;-59
2021/06/16 03:27:52;;;;;;;6.53;4.23;;;;;;;16.06;100.00;98109.03;5069407;28;20231;-59
2021/06/16 03:30:20;;;;;;;5.30;4.80;;;;;;;16.06;100.00;98108.22;5069460;28;20219;-59
2021/06/16 03:32:49;;;;;;;5.50;4.40;;;;;;;16.01;100.00;98110.47;5067945;28;20242;-58
2021/06/16 03:35:16;;;;;;;5.03;4.40;;;;;;;16.00;100.00;98114.13;5069622;28;20219;-60
2021/06/16 03:37:44;;;;;;;5.17;4.00;;;;;;;16.01;100.00;98113.94;5069416;28;20227;-59
2021/06/16 03:40:12;;;;;;;5.10;3.93;;;;;;;16.08;100.00;98110.59;5069459;28;20211;-59
2021/06/16 03:42:40;;;;;;;4.73;4.20;;;;;;;16.14;100.00;98118.03;5069005;28;20230;-60
2021/06/16 03:45:09;;;;;;;4.57;4.13;;;;;;;16.20;100.00;98116.63;5069182;28;20216;-60
2021/06/16 03:47:38;;;;;;;4.37;3.97;;;;;;;16.25;100.00;98106.38;5068892;28;20535;-60
2021/06/16 03:50:08;;;;;;;4.80;4.30;;;;;;;16.32;100.00;98100.34;5068974;28;20664;-59
2021/06/16 03:52:37;;;;;;;6.20;4.53;;;;;;;16.36;100.00;98103.56;5068652;28;20207;-59
2021/06/16 03:55:06;;;;;;;4.80;4.27;;;;;;;16.45;100.00;98114.25;5068961;28;20204;-60
2021/06/16 03:57:33;;;;;;;5.07;4.17;;;;;;;16.54;100.00;98112.56;5069165;28;20211;-59
2021/06/16 04:00:01;;;;;;;7.17;5.00;;;;;;;16.63;100.00;98112.53;5066841;28;20321;-60
2021/06/16 04:02:28;;;;;;;4.67;4.27;;;;;;;16.73;100.00;98113.34;5068540;28;20286;-60
2021/06/16 04:04:55;;;;;;;5.33;4.60;;;;;;;16.83;100.00;98111.47;5069176;28;20211;-58
2021/06/16 04:07:24;;;;;;;5.00;4.37;;;;;;;16.92;100.00;98109.78;5068440;28;20665;-58
2021/06/16 04:09:53;;;;;;;5.00;4.60;;;;;;;17.00;99.89;98112.56;5068394;28;20240;-58
2021/06/16 04:12:22;;;;;;;4.40;4.00;;;;;;;17.05;99.43;98111.13;5068641;28;20212;-58
2021/06/16 04:14:49;;;;;;;5.07;4.57;;;;;;;17.11;99.44;98105.22;5068097;28;20251;-60
2021/06/16 04:17:18;;;;;;;5.17;4.73;;;;;;;17.16;99.07;98107.44;5068121;28;20285;-60
2021/06/16 04:19:45;;;;;;;5.53;4.83;;;;;;;17.22;98.80;98107.69;5068175;28;20208;-56
2021/06/16 04:22:12;;;;;;;5.43;4.80;;;;;;;17.27;98.66;98099.22;5068647;28;20212;-58
2021/06/16 04:24:38;;;;;;;5.50;5.00;;;;;;;17.32;98.41;98097.78;5067710;28;20619;-58
2021/06/16 04:27:06;;;;;;;5.97;5.03;;;;;;;17.40;98.14;98097.94;5068129;28;20532;-60
2021/06/16 04:29:33;;;;;;;6.47;4.60;;;;;;;17.50;97.32;98095.22;5068602;28;20227;-60
2021/06/16 04:31:59;;;;;;;5.97;5.33;;;;;;;17.60;97.08;98102.16;5068634;28;20230;-59
2021/06/16 04:34:29;;;;;;;5.13;4.63;;;;;;;17.69;96.22;98093.22;5068332;28;20222;-60
2021/06/16 04:36:55;;;;;;;5.60;5.00;;;;;;;17.85;95.25;98096.09;5068438;28;20203;-58
2021/06/16 04:39:22;;;;;;;6.37;5.43;;;;;;;17.93;94.82;98093.47;5068782;28;20212;-60
2021/06/16 04:41:48;;;;;;;5.53;4.93;;;;;;;18.00;94.26;98094.59;5068105;28;20622;-60
2021/06/16 04:44:15;;;;;;;5.70;5.10;;;;;;;18.06;93.68;98088.63;5068216;28;20641;-60
2021/06/16 04:46:41;;;;;;;5.93;5.33;;;;;;;18.14;93.31;98086.00;5068422;28;20211;-58
2021/06/16 04:49:07;;;;;;;5.77;4.97;;;;;;;18.19;92.52;98081.03;5068320;28;20250;-60
2021/06/16 04:51:35;;;;;;;5.97;5.23;;;;;;;18.37;92.19;98087.25;5066293;28;20685;-60
2021/06/16 04:54:02;;;;;;;6.10;5.20;;;;;;;18.52;91.21;98091.03;5067609;28;20287;-60
2021/06/16 04:56:28;;;;;;;6.30;5.17;;;;;;;18.85;89.92;98092.94;5067963;28;20211;-60
2021/06/16 04:58:55;;;;;;;6.00;5.27;;;;;;;19.29;87.55;98082.97;5067764;28;20294;-60
2021/06/16 05:01:21;;;;;;;6.10;5.33;;;;;;;19.68;86.50;98087.63;5067798;28;20682;-60
2021/06/16 05:03:48;;;;;;;6.87;5.60;;;;;;;20.02;85.05;98096.44;5068044;28;20295;-60
2021/06/16 05:06:14;;;;;;;6.50;5.77;;;;;;;20.43;83.60;98090.09;5068683;28;20207;-60
2021/06/16 05:08:42;;;;;;;7.13;6.30;;;;;;;20.82;81.83;98093.78;5067927;28;20238;-60
2021/06/16 05:11:08;;;;;;;6.80;5.40;;;;;;;21.18;79.84;98092.38;5068620;28;20207;-60
2021/06/16 05:13:35;;;;;;;6.47;5.27;;;;;;;21.40;79.65;98088.09;5068106;28;20294;-59
2021/06/16 05:16:01;;;;;;;5.33;4.57;;;;;;;21.48;78.35;98088.91;5068005;28;20246;-58
2021/06/16 05:18:28;;;;;;;5.17;4.67;;;;;;;21.70;76.77;98087.31;5066366;28;20586;-57
2021/06/16 05:20:54;;;;;;;6.83;4.57;;;;;;;21.99;74.57;98085.63;5068231;28;20265;-58
2021/06/16 05:23:25;;;;;;;6.33;5.07;;;;;;;22.21;71.97;98087.50;5068059;28;20223;-57
2021/06/16 05:25:53;;;;;;;5.60;4.70;;;;;;;22.47;70.58;98079.91;5068159;28;20227;-59
2021/06/16 05:28:19;;;;;;;5.90;4.97;;;;;;;22.74;69.90;98082.00;5068034;28;20235;-60
2021/06/16 05:30:45;;;;;;;5.10;4.60;;;;;;;22.84;69.41;98084.44;5071036;28;20227;-60
2021/06/16 05:33:12;;;;;;;4.63;4.20;;;;;;;23.00;69.18;98078.88;5071734;28;20653;-60
2021/06/16 05:35:38;;;;;;;5.97;4.57;;;;;;;23.34;68.07;98080.03;5071698;28;20215;-60
2021/06/16 05:38:05;;;;;;;6.27;4.70;;;;;;;23.77;65.99;98084.53;5071441;28;20223;-60
2021/06/16 05:40:32;;;;;;;4.83;4.40;;;;;;;24.14;63.09;98083.53;5071412;28;20575;-60
2021/06/16 05:42:59;;;;;;;7.53;5.10;;;;;;;24.66;61.66;98084.06;5069428;28;20212;-61
2021/06/16 05:45:26;;;;;;;6.33;5.07;;;;;;;25.07;58.77;98088.56;5071489;28;20207;-60
2021/06/16 05:47:52;;;;;;;6.00;5.13;;;;;;;25.43;58.25;98089.19;5071043;28;20211;-60
2021/06/16 05:50:19;;;;;;;5.87;4.30;;;;;;;25.75;57.22;98085.84;5072001;28;20565;-60
2021/06/16 05:52:45;;;;;;;6.00;4.37;;;;;;;26.23;56.72;98084.78;5072983;28;20224;-60
2021/06/16 05:55:13;;;;;;;7.73;4.70;;;;;;;26.69;54.39;98093.81;5071454;28;20210;-59
2021/06/16 05:57:40;;;;;;;6.40;4.30;;;;;;;27.07;52.42;98084.00;5071306;28;20215;-60
2021/06/16 06:00:10;;;;;;;4.70;4.17;;;;;;;27.45;50.58;98093.16;5071352;28;20629;-60
2021/06/16 06:02:37;;;;;;;5.47;4.10;;;;;;;27.83;49.61;98091.38;5071505;28;20226;-60
2021/06/16 06:05:04;;;;;;;11.17;4.17;;;;;;;28.09;48.33;98086.66;5070989;28;20218;-60
2021/06/16 06:07:31;;;;;;;5.90;4.17;;;;;;;28.31;47.54;98089.88;5071274;28;20507;-60
2021/06/16 06:09:57;;;;;;;5.03;4.53;;;;;;;28.38;47.19;98086.09;5069953;28;20342;-60
2021/06/16 06:12:23;;;;;;;6.03;5.00;;;;;;;28.39;47.09;98092.38;5070974;28;20276;-60
2021/06/16 06:14:50;;;;;;;5.60;4.87;;;;;;;28.49;47.05;98087.28;5071141;28;20239;-60
2021/06/16 06:17:18;;;;;;;9.65;7.25;;;;;;;28.47;46.44;98083.94;5071299;28;20695;-60
2021/06/16 06:19:44;;;;;;;8.73;7.27;;;;;;;28.39;45.12;98085.06;5073011;28;20204;-60
2021/06/16 06:22:11;;;;;;;9.53;6.87;;;;;;;28.56;45.44;98083.44;5073390;28;20211;-60
2021/06/16 06:24:37;;;;;;;8.02;7.22;;;;;;;28.85;44.54;98096.41;5073884;28;20556;-60
2021/06/16 06:27:04;;;;;;;6.80;6.10;;;;;;;29.12;44.53;98089.75;5073301;28;20207;-60
2021/06/16 06:29:33;;;;;;;5.50;5.00;;;;;;;29.33;43.63;98092.03;5073974;28;20235;-60
2021/06/16 06:31:59;;;;;;;5.50;5.00;;;;;;;29.46;43.13;98088.34;5072444;28;20219;-61
2021/06/16 06:34:27;;;;;;;5.53;4.45;;;;;;;29.54;43.12;98098.97;5072949;28;20210;-61
2021/06/16 06:36:54;;;;;;;4.28;3.88;;;;;;;29.61;42.30;98088.81;5072040;28;20218;-61
2021/06/16 06:39:20;;;;;;;4.50;4.05;;;;;;;29.75;43.08;98090.34;5072774;28;20214;-61
2021/06/16 06:41:46;;;;;;;3.90;3.60;;;;;;;29.90;42.63;98093.50;5073340;28;20578;-61
2021/06/16 06:44:13;;;;;;;4.18;3.70;;;;;;;29.92;41.64;98094.94;5071121;28;20211;-61
2021/06/16 06:46:39;;;;;;;6.28;4.10;;;;;;;29.95;41.28;98093.66;5070063;28;20233;-61
2021/06/16 06:49:06;;;;;;;4.25;3.47;;;;;;;30.00;40.58;98093.78;5070479;28;20254;-61
2021/06/16 06:51:34;;;;;;;4.55;3.65;;;;;;;29.91;40.75;98084.28;5070563;28;20223;-62
2021/06/16 06:54:00;;;;;;;4.25;3.75;;;;;;;29.86;41.49;98086.84;5070395;28;20203;-61
2021/06/16 06:56:27;;;;;;;3.38;3.10;;;;;;;29.77;40.97;98080.06;5070446;28;20216;-61
2021/06/16 06:58:53;;;;;;;3.72;3.15;;;;;;;29.81;41.16;98078.53;5070124;28;20211;-61
2021/06/16 07:01:19;;;;;;;4.47;3.30;;;;;;;29.82;41.66;98069.28;5068160;28;20203;-61
2021/06/16 07:03:46;;;;;;;4.43;3.28;;;;;;;29.76;42.51;98083.81;5070504;28;20227;-61
2021/06/16 07:06:12;;;;;;;4.00;3.42;;;;;;;29.74;43.26;98075.03;5070075;28;20278;-61
2021/06/16 07:08:40;;;;;;;4.20;3.20;;;;;;;29.69;43.07;98072.16;5070436;28;20211;-61
2021/06/16 07:11:06;;;;;;;3.72;3.42;;;;;;;29.54;43.74;98082.63;5070265;28;20250;-61
2021/06/16 07:13:33;;;;;;;5.15;2.97;;;;;;;29.23;44.33;98080.81;5069969;28;20295;-61
2021/06/16 07:15:59;;;;;;;4.88;3.35;;;;;;;28.63;45.52;98067.94;5069948;28;20669;-60
2021/06/16 07:18:26;;;;;;;4.30;3.40;;;;;;;27.87;47.50;98065.44;5070080;28;20211;-60
2021/06/16 07:20:52;;;;;;;3.85;3.33;;;;;;;27.08;50.72;98069.41;5069876;28;20207;-61
2021/06/16 07:23:19;;;;;;;4.10;3.30;;;;;;;26.62;52.67;98074.00;5070010;28;20214;-60
2021/06/16 07:25:47;;;;;;;5.63;4.03;;;;;;;26.37;53.55;98072.91;5069448;28;20214;-60
2021/06/16 07:28:13;;;;;;;3.78;3.35;;;;;;;26.18;55.86;98070.16;5068114;28;20226;-60
2021/06/16 07:30:39;;;;;;;4.15;3.72;;;;;;;26.07;56.85;98068.03;5067338;28;20302;-60
2021/06/16 07:33:09;;;;;;;3.97;3.58;;;;;;;26.05;58.09;98070.97;5067855;28;20234;-61
2021/06/16 07:35:35;;;;;;;5.03;3.60;;;;;;;26.04;57.28;98065.75;5068562;28;20221;-60
2021/06/16 07:38:02;;;;;;;5.30;3.55;;;;;;;26.06;58.73;98063.66;5069615;28;20556;-61
2021/06/16 07:40:28;;;;;;;4.20;3.60;;;;;;;26.06;57.27;98061.81;5069631;28;20218;-61
2021/06/16 07:42:56;;;;;;;5.13;3.90;;;;;;;26.08;58.48;98065.13;5069632;28;20208;-61
2021/06/16 07:45:23;;;;;;;5.43;3.90;;;;;;;26.08;58.90;98065.13;5069374;28;20295;-61
2021/06/16 07:47:49;;;;;;;5.00;3.73;;;;;;;26.11;57.00;98063.91;5069465;28;20203;-60
2021/06/16 07:50:16;;;;;;;4.15;3.50;;;;;;;26.08;57.00;98065.13;5069195;28;20719;-60
2021/06/16 07:52:42;;;;;;;4.05;3.72;;;;;;;26.12;55.05;98055.56;5069275;28;20211;-60
2021/06/16 07:55:10;;;;;;;5.57;3.70;;;;;;;26.17;55.48;98061.22;5069425;28;20639;-61
2021/06/16 07:57:37;;;;;;;4.03;3.30;;;;;;;26.16;52.75;98064.94;5069626;28;20230;-60
2021/06/16 08:00:06;;;;;;;3.97;3.37;;;;;;;26.20;54.40;98058.06;5068694;28;20212;-61
2021/06/16 08:02:33;;;;;;;3.70;3.40;;;;;;;26.28;55.06;98060.59;5069512;28;20601;-61
2021/06/16 08:04:59;;;;;;;6.43;3.80;;;;;;;26.27;58.05;98061.63;5068984;28;20211;-61
2021/06/16 08:07:25;;;;;;;4.17;3.77;;;;;;;26.34;58.86;98061.66;5068673;28;20543;-60
2021/06/16 08:09:52;;;;;;;5.13;4.07;;;;;;;26.39;55.65;98057.28;5068699;28;20231;-60
2021/06/16 08:12:19;;;;;;;4.18;3.78;;;;;;;26.29;54.99;98056.84;5069092;28;20664;-60
2021/06/16 08:14:45;;;;;;;4.05;3.67;;;;;;;26.26;56.09;98056.41;5070048;28;20204;-60
2021/06/16 08:17:14;;;;;;;4.53;3.73;;;;;;;26.25;55.43;98052.88;5072426;28;20207;-60
2021/06/16 08:19:40;;;;;;;5.50;4.20;;;;;;;26.26;57.06;98056.41;5070488;28;20211;-60
2021/06/16 08:22:09;;;;;;;3.80;3.50;;;;;;;26.29;56.33;98058.72;5072739;28;20222;-60
2021/06/16 08:24:36;;;;;;;4.38;3.80;;;;;;;26.39;55.54;98049.13;5072497;28;20670;-60
2021/06/16 08:27:02;;;;;;;5.80;3.83;;;;;;;26.41;55.66;98044.38;5072409;28;20738;-60
2021/06/16 08:29:29;;;;;;;6.00;3.83;;;;;;;26.49;55.51;98048.72;5072581;28;20231;-61
2021/06/16 08:31:55;;;;;;;4.18;3.60;;;;;;;26.53;57.61;98047.28;5072547;28;20216;-60
2021/06/16 08:34:24;;;;;;;4.40;3.45;;;;;;;26.63;56.24;98053.97;5072140;28;20210;-60
2021/06/16 08:36:50;;;;;;;4.47;3.92;;;;;;;26.71;52.68;98040.22;5072420;28;20578;-60
2021/06/16 08:39:17;;;;;;;4.85;4.00;;;;;;;26.71;57.68;98037.50;5072144;28;20673;-60
2021/06/16 08:41:44;;;;;;;4.75;3.80;;;;;;;26.77;52.53;98033.13;5072108;28;20572;-61
2021/06/16 08:44:13;;;;;;;3.92;3.42;;;;;;;26.75;54.36;98036.03;5072160;28;20207;-60
2021/06/16 08:46:39;;;;;;;4.18;3.78;;;;;;;26.74;51.89;98033.53;5070513;28;20578;-61
2021/06/16 08:49:06;;;;;;;3.33;3.00;;;;;;;26.84;55.59;98039.38;5070483;28;20234;-60
2021/06/16 08:51:36;;;;;;;4.38;3.30;;;;;;;27.06;55.04;98038.91;5068011;28;20222;-61
2021/06/16 08:54:03;;;;;;;4.78;3.33;;;;;;;27.10;50.68;98034.75;5067893;28;20199;-60
2021/06/16 08:56:29;;;;;;;4.17;3.70;;;;;;;27.24;52.55;98030.16;5068066;28;20684;-60
2021/06/16 08:58:56;;;;;;;4.32;3.33;;;;;;;27.33;49.63;98031.59;5067578;28;20649;-61
2021/06/16 09:01:22;;;;;;;4.00;3.38;;;;;;;27.42;51.66;98034.69;5067566;28;20298;-62
2021/06/16 09:03:49;;;;;;;5.03;3.42;;;;;;;27.51;50.59;98035.28;5068083;28;20212;-60
2021/06/16 09:06:17;;;;;;;6.55;3.67;;;;;;;27.73;52.63;98033.94;5071262;28;20609;-60
2021/06/16 09:08:56;;;;;;;5.82;3.67;;;;;;;27.85;54.65;98019.50;5071446;28;20215;-60
2021/06/16 09:11:25;;;;;;;5.00;3.45;;;;;;;27.85;51.83;98034.94;5071512;28;20576;-60
2021/06/16 09:13:52;;;;;;;4.32;3.10;;;;;;;27.90;52.74;98032.41;5070097;28;20215;-60
2021/06/16 09:16:27;;;;;;;3.70;3.40;;;;;;;28.01;52.73;98029.03;5071571;28;20246;-60
2021/06/16 09:18:53;;;;;;;5.93;3.60;;;;;;;28.07;53.58;98026.25;5071400;28;20568;-60
2021/06/16 09:21:32;;;;;;;5.10;3.40;;;;;;;28.10;55.46;98033.13;5071211;28;20246;-61
2021/06/16 09:24:00;;;;;;;4.32;3.25;;;;;;;28.15;49.28;98025.16;5071389;28;20230;-60
2021/06/16 09:26:31;;;;;;;4.07;3.67;;;;;;;28.25;47.98;98030.97;5071170;28;20207;-61
2021/06/16 09:28:58;;;;;;;3.70;3.28;;;;;;;28.21;46.31;98029.72;5071467;28;20237;-61
2021/06/16 09:31:25;;;;;;;5.13;3.45;;;;;;;28.31;46.80;98022.75;5070935;28;20238;-61
2021/06/16 09:33:54;;;;;;;3.95;3.55;;;;;;;28.39;50.08;98022.53;5071635;28;20207;-60
2021/06/16 09:36:23;;;;;;;4.35;3.65;;;;;;;28.47;56.75;98029.56;5071440;28;20246;-60
2021/06/16 09:38:51;;;;;;;6.47;3.42;;;;;;;28.53;51.42;98025.94;5071163;28;20274;-60
2021/06/16 09:41:21;;;;;;;4.22;3.83;;;;;;;28.52;51.53;98019.69;5069729;28;20541;-60
2021/06/16 09:43:49;;;;;;;3.75;3.30;;;;;;;28.65;51.15;98021.47;5070641;28;20289;-60
2021/06/16 09:46:17;;;;;;;4.00;3.60;;;;;;;28.76;47.41;98021.59;5071172;28;20215;-61
2021/06/16 09:48:45;;;;;;;4.28;3.03;;;;;;;28.84;50.82;98025.88;5070931;28;20226;-60
2021/06/16 09:51:20;;;;;;;6.07;3.20;;;;;;;28.86;48.96;98023.78;5070886;28;20230;-60
2021/06/16 09:53:57;;;;;;;4.00;3.60;;;;;;;28.95;48.72;98023.31;5070504;28;20276;-61
2021/06/16 09:56:25;;;;;;;4.82;3.50;;;;;;;29.07;50.76;98020.69;5070554;28;20203;-61
2021/06/16 09:58:53;;;;;;;3.60;3.17;;;;;;;29.16;49.36;98025.59;5070939;28;20211;-60
2021/06/16 10:01:20;;;;;;;4.72;3.33;;;;;;;29.27;48.22;98026.75;5070682;28;20273;-60
2021/06/16 10:03:46;;;;;;;4.65;3.40;;;;;;;29.26;47.87;98017.75;5070329;28;20350;-60
2021/06/16 10:06:14;;;;;;;4.70;3.25;;;;;;;29.35;47.56;98012.84;5070286;28;20218;-60
2021/06/16 10:08:43;;;;;;;6.57;3.42;;;;;;;29.45;46.10;98013.13;5069388;28;20234;-61
2021/06/16 10:11:12;;;;;;;3.47;3.17;;;;;;;29.53;45.56;98012.88;5070625;28;20590;-61
2021/06/16 10:13:40;;;;;;;3.50;3.20;;;;;;;29.56;47.65;98015.97;5070469;28;20215;-60
2021/06/16 10:16:07;;;;;;;3.50;3.20;;;;;;;29.63;47.54;98021.31;5069180;28;20673;-60
2021/06/16 10:18:39;;;;;;;4.40;3.38;;;;;;;29.62;45.62;98014.22;5070802;28;20561;-61
2021/06/16 10:21:07;;;;;;;3.78;3.30;;;;;;;29.73;48.32;98008.00;5070798;28;20208;-60
2021/06/16 10:23:33;;;;;;;4.00;3.42;;;;;;;29.83;46.81;98000.94;5070832;28;20231;-61
2021/06/16 10:26:03;;;;;;;3.70;3.40;;;;;;;29.87;45.93;98002.13;5070260;28;20283;-60
2021/06/16 10:28:35;;;;;;;3.45;3.15;;;;;;;29.90;43.15;97989.94;5070067;28;20211;-60
2021/06/16 10:31:05;;;;;;;3.78;3.42;;;;;;;29.99;47.11;97994.00;5070088;28;20230;-61
2021/06/16 10:33:35;;;;;;;3.55;3.08;;;;;;;30.09;44.46;97986.13;5068970;28;20249;-61
2021/06/16 10:36:10;;;;;;;3.28;2.97;;;;;;;30.21;42.98;97995.19;5069799;28;20215;-61
2021/06/16 10:38:38;;;;;;;3.80;3.00;;;;;;;30.25;43.48;97993.66;5070246;28;20357;-61
2021/06/16 10:41:04;;;;;;;3.40;3.10;;;;;;;30.35;42.60;97989.28;5069729;28;20223;-60
2021/06/16 10:43:31;;;;;;;3.47;3.20;;;;;;;30.43;43.08;97985.38;5069794;28;20579;-61
2021/06/16 10:46:17;;;;;;;3.45;2.80;;;;;;;30.50;45.32;97986.94;5069397;28;20551;-61
2021/06/16 10:48:46;;;;;;;3.53;3.20;;;;;;;30.55;43.66;97989.78;5069858;28;20302;-61
2021/06/16 10:51:24;;;;;;;3.83;3.22;;;;;;;30.61;45.67;97971.63;5069430;28;20662;-61
2021/06/16 10:54:13;;;;;;;3.47;3.17;;;;;;;30.68;45.12;97975.13;5069719;28;20199;-61
2021/06/16 10:56:42;;;;;;;3.40;3.20;;;;;;;30.73;44.50;97976.09;5069147;28;20679;-61
2021/06/16 10:59:09;;;;;;;3.50;3.20;;;;;;;30.77;40.44;97970.97;5069265;28;20631;-60
2021/06/16 11:01:48;;;;;;;3.72;3.33;;;;;;;30.66;42.63;97971.78;5067880;28;20535;-61
2021/06/16 11:04:27;;;;;;;3.83;3.53;;;;;;;30.76;46.24;97969.31;5069596;28;20230;-61
2021/06/16 11:06:53;;;;;;;4.03;3.40;;;;;;;30.77;44.60;97970.97;5069743;28;20264;-60
2021/06/16 11:09:51;;;;;;;3.30;3.00;;;;;;;30.81;43.88;97964.78;5069484;28;20228;-61
2021/06/16 11:12:28;;;;;;;3.88;3.28;;;;;;;30.93;42.20;97970.28;5069696;28;20227;-61
2021/06/16 11:14:55;;;;;;;3.50;3.22;;;;;;;30.86;45.60;97961.38;5069433;28;20250;-61
2021/06/16 11:17:46;;;;;;;3.80;3.50;;;;;;;30.87;45.98;97963.03;5069376;28;20599;-61
2021/06/16 11:20:19;;;;;;;3.70;3.30;;;;;;;30.95;44.32;97957.22;5069468;28;20533;-60
2021/06/16 11:22:49;;;;;;;3.70;3.30;;;;;;;30.98;46.14;97956.75;5068871;28;20266;-61
2021/06/16 11:25:35;;;;;;;3.47;3.17;;;;;;;30.90;41.12;97955.19;5069059;28;20241;-61
2021/06/16 11:28:08;;;;;;;3.28;2.90;;;;;;;30.90;40.48;97947.00;5066760;28;20215;-61
2021/06/16 11:31:07;;;;;;;3.30;3.00;;;;;;;31.12;37.68;97944.50;5068800;28;20239;-61
2021/06/16 11:33:45;;;;;;;3.58;3.28;;;;;;;30.91;40.68;97945.94;5068691;28;20242;-60
2021/06/16 11:36:17;;;;;;;3.17;2.90;;;;;;;30.88;37.17;97940.13;5069093;28;20278;-61
2021/06/16 11:38:54;;;;;;;4.10;3.67;;;;;;;30.85;39.59;97929.66;5068783;28;20212;-60